createdAt,value
2017-10-03T00:00:38.233Z,0
2017-10-03T00:01:38.256Z,0
2017-10-03T00:02:38.278Z,0
2017-10-03T00:03:38.608Z,0
2017-10-03T00:04:38.321Z,0
2017-10-03T00:05:38.341Z,0
2017-10-03T00:06:45.134Z,0
2017-10-03T00:07:38.390Z,0
2017-10-03T00:08:38.717Z,0
2017-10-03T00:09:38.428Z,0
2017-10-03T00:10:38.452Z,0
2017-10-03T00:11:38.473Z,0
2017-10-03T00:12:38.809Z,0
2017-10-03T00:13:38.512Z,0
2017-10-03T00:14:38.538Z,0
2017-10-03T00:15:38.575Z,0
2017-10-03T00:16:38.638Z,0
2017-10-03T00:17:38.605Z,0
2017-10-03T00:18:38.626Z,0
2017-10-03T00:19:38.647Z,0
2017-10-03T00:20:38.681Z,0
2017-10-03T00:21:38.703Z,0
2017-10-03T00:22:38.727Z,0
2017-10-03T00:23:38.735Z,0
2017-10-03T00:24:38.754Z,0
2017-10-03T00:25:39.099Z,0
2017-10-03T00:26:38.801Z,0
2017-10-03T00:27:38.827Z,0
2017-10-03T00:28:38.845Z,0
2017-10-03T00:29:38.876Z,0
2017-10-03T00:30:39.089Z,0
2017-10-03T00:31:38.968Z,0
2017-10-03T00:32:38.940Z,0
2017-10-03T00:33:38.948Z,0
2017-10-03T00:34:38.978Z,0
2017-10-03T00:35:38.997Z,0
2017-10-03T00:36:39.022Z,0
2017-10-03T00:37:39.039Z,0
2017-10-03T00:38:39.370Z,0
2017-10-03T00:39:39.093Z,0
2017-10-03T00:40:39.430Z,0
2017-10-03T00:41:39.432Z,0
2017-10-03T00:42:39.460Z,0
2017-10-03T00:43:39.165Z,0
2017-10-03T00:44:39.516Z,0
2017-10-03T00:45:39.209Z,0
2017-10-03T00:46:39.244Z,0
2017-10-03T00:47:39.571Z,0
2017-10-03T00:48:39.610Z,0
2017-10-03T00:49:39.300Z,0
2017-10-03T00:50:39.374Z,0
2017-10-03T00:51:39.668Z,0
2017-10-03T00:52:39.364Z,0
2017-10-03T00:53:39.694Z,0
2017-10-03T00:54:39.399Z,0
2017-10-03T00:55:39.428Z,0
2017-10-03T00:56:39.447Z,0
2017-10-03T00:57:39.470Z,0
2017-10-03T00:58:39.491Z,0
2017-10-03T00:59:39.831Z,0
2017-10-03T01:00:39.534Z,0
2017-10-03T01:01:39.868Z,0
2017-10-03T01:02:39.901Z,0
2017-10-03T01:03:39.600Z,0
2017-10-03T01:04:39.623Z,0
2017-10-03T01:05:39.640Z,0
2017-10-03T01:06:39.673Z,0
2017-10-03T01:07:40.102Z,0
2017-10-03T01:08:40.012Z,0
2017-10-03T01:09:39.728Z,0
2017-10-03T01:10:39.747Z,0
2017-10-03T01:11:39.764Z,0
2017-10-03T01:12:39.794Z,0
2017-10-03T01:13:39.810Z,0
2017-10-03T01:14:39.835Z,0
2017-10-03T01:15:39.866Z,0
2017-10-03T01:16:39.878Z,0
2017-10-03T01:17:39.903Z,0
2017-10-03T01:18:39.924Z,0
2017-10-03T01:19:40.264Z,0
2017-10-03T01:20:39.963Z,0
2017-10-03T01:21:39.982Z,0
2017-10-03T01:22:40.049Z,0
2017-10-03T01:23:40.032Z,0
2017-10-03T01:24:40.051Z,0
2017-10-03T01:25:40.075Z,0
2017-10-03T01:26:40.098Z,0
2017-10-03T01:27:40.121Z,0
2017-10-03T01:28:40.137Z,0
2017-10-03T01:29:40.488Z,0
2017-10-03T01:30:40.180Z,0
2017-10-03T01:31:41.803Z,0
2017-10-03T01:32:41.068Z,0
2017-10-03T01:33:40.245Z,0
2017-10-03T01:34:40.262Z,0
2017-10-03T01:35:40.290Z,0
2017-10-03T01:36:40.308Z,0
2017-10-03T01:37:40.386Z,0
2017-10-03T01:38:40.356Z,0
2017-10-03T01:39:40.373Z,0
2017-10-03T01:40:40.711Z,0
2017-10-03T01:41:40.412Z,0
2017-10-03T01:42:40.749Z,0
2017-10-03T01:43:40.458Z,0
2017-10-03T01:44:40.480Z,0
2017-10-03T01:45:40.820Z,0
2017-10-03T01:46:40.536Z,0
2017-10-03T01:47:40.543Z,0
2017-10-03T01:48:40.874Z,0
2017-10-03T01:49:40.585Z,0
2017-10-03T01:50:40.917Z,0
2017-10-03T01:51:40.631Z,0
2017-10-03T01:52:40.669Z,0
2017-10-03T01:53:40.675Z,0
2017-10-03T01:54:40.753Z,0
2017-10-03T01:55:40.715Z,0
2017-10-03T01:56:41.064Z,0
2017-10-03T01:57:40.775Z,0
2017-10-03T01:58:40.789Z,0
2017-10-03T01:59:40.805Z,0
2017-10-03T02:00:40.826Z,0
2017-10-03T02:01:40.852Z,0
2017-10-03T02:02:40.888Z,0
2017-10-03T02:03:40.893Z,0
2017-10-03T02:04:40.917Z,0
2017-10-03T02:05:40.940Z,0
2017-10-03T02:06:40.962Z,0
2017-10-03T02:07:40.978Z,0
2017-10-03T02:08:41.000Z,0
2017-10-03T02:09:41.036Z,0
2017-10-03T02:10:41.041Z,0
2017-10-03T02:11:41.374Z,0
2017-10-03T02:12:41.401Z,0
2017-10-03T02:13:41.110Z,0
2017-10-03T02:14:41.132Z,0
2017-10-03T02:15:41.173Z,0
2017-10-03T02:16:41.181Z,0
2017-10-03T02:17:41.200Z,0
2017-10-03T02:18:41.216Z,0
2017-10-03T02:19:41.236Z,0
2017-10-03T02:20:41.256Z,0
2017-10-03T02:21:41.282Z,0
2017-10-03T02:22:41.341Z,0
2017-10-03T02:23:41.329Z,0
2017-10-03T02:24:41.344Z,0
2017-10-03T02:25:42.000Z,0
2017-10-03T02:26:41.388Z,0
2017-10-03T02:27:42.463Z,0
2017-10-03T02:28:41.432Z,0
2017-10-03T02:29:41.460Z,0
2017-10-03T02:30:41.479Z,0
2017-10-03T02:31:41.817Z,0
2017-10-03T02:32:41.545Z,0
2017-10-03T02:33:41.538Z,0
2017-10-03T02:34:41.882Z,0
2017-10-03T02:35:41.586Z,0
2017-10-03T02:36:41.607Z,0
2017-10-03T02:37:41.691Z,0
2017-10-03T02:38:41.648Z,0
2017-10-03T02:39:41.678Z,0
2017-10-03T02:40:41.698Z,0
2017-10-03T02:41:41.720Z,0
2017-10-03T02:42:44.139Z,0
2017-10-03T02:43:42.069Z,0
2017-10-03T02:44:41.785Z,0
2017-10-03T02:45:41.830Z,0
2017-10-03T02:46:41.828Z,0
2017-10-03T02:47:41.848Z,0
2017-10-03T02:48:41.875Z,0
2017-10-03T02:49:42.218Z,0
2017-10-03T02:50:41.917Z,0
2017-10-03T02:51:41.934Z,0
2017-10-03T02:52:41.959Z,0
2017-10-03T02:53:42.302Z,0
2017-10-03T02:54:42.011Z,0
2017-10-03T02:55:42.048Z,0
2017-10-03T02:56:42.052Z,0
2017-10-03T02:57:42.068Z,0
2017-10-03T02:58:42.139Z,0
2017-10-03T02:59:42.114Z,0
2017-10-03T03:00:42.138Z,0
2017-10-03T03:01:42.169Z,0
2017-10-03T03:02:42.179Z,0
2017-10-03T03:03:42.224Z,0
2017-10-03T03:04:42.235Z,0
2017-10-03T03:05:42.251Z,0
2017-10-03T03:06:42.269Z,0
2017-10-03T03:07:42.292Z,0
2017-10-03T03:08:42.639Z,0
2017-10-03T03:09:42.332Z,0
2017-10-03T03:10:42.358Z,0
2017-10-03T03:11:42.378Z,0
2017-10-03T03:12:42.400Z,0
2017-10-03T03:13:42.476Z,0
2017-10-03T03:14:42.455Z,0
2017-10-03T03:15:42.471Z,0
2017-10-03T03:16:42.493Z,0
2017-10-03T03:17:42.519Z,0
2017-10-03T03:18:42.546Z,0
2017-10-03T03:19:42.566Z,0
2017-10-03T03:20:42.581Z,0
2017-10-03T03:21:42.608Z,0
2017-10-03T03:22:42.948Z,0
2017-10-03T03:23:42.657Z,0
2017-10-03T03:24:42.690Z,0
2017-10-03T03:25:42.701Z,0
2017-10-03T03:26:42.715Z,0
2017-10-03T03:27:42.739Z,0
2017-10-03T03:28:42.809Z,0
2017-10-03T03:29:42.783Z,0
2017-10-03T03:30:43.443Z,0
2017-10-03T03:31:42.826Z,0
2017-10-03T03:32:42.860Z,0
2017-10-03T03:33:42.883Z,0
2017-10-03T03:34:43.207Z,0
2017-10-03T03:35:42.915Z,0
2017-10-03T03:36:42.942Z,0
2017-10-03T03:37:42.961Z,0
2017-10-03T03:38:42.988Z,0
2017-10-03T03:39:43.014Z,0
2017-10-03T03:40:43.031Z,0
2017-10-03T03:41:43.055Z,0
2017-10-03T03:42:43.072Z,0
2017-10-03T03:43:43.094Z,0
2017-10-03T03:44:43.124Z,0
2017-10-03T03:45:43.142Z,0
2017-10-03T03:46:43.162Z,0
2017-10-03T03:47:43.289Z,0
2017-10-03T03:48:43.232Z,0
2017-10-03T03:49:43.250Z,0
2017-10-03T03:50:43.252Z,0
2017-10-03T03:51:43.277Z,0
2017-10-03T03:52:43.311Z,0
2017-10-03T03:53:43.651Z,0
2017-10-03T03:54:43.340Z,0
2017-10-03T03:55:43.373Z,0
2017-10-03T03:56:43.384Z,0
2017-10-03T03:57:43.409Z,0
2017-10-03T03:58:43.427Z,0
2017-10-03T03:59:43.759Z,0
2017-10-03T04:00:43.473Z,0
2017-10-03T04:01:43.498Z,0
2017-10-03T04:02:43.573Z,0
2017-10-03T04:03:43.546Z,0
2017-10-03T04:04:43.564Z,0
2017-10-03T04:05:43.602Z,0
2017-10-03T04:06:43.613Z,0
2017-10-03T04:07:43.629Z,0
2017-10-03T04:08:43.661Z,0
2017-10-03T04:09:43.676Z,0
2017-10-03T04:10:43.703Z,0
2017-10-03T04:11:43.730Z,0
2017-10-03T04:12:43.742Z,0
2017-10-03T04:13:43.763Z,0
2017-10-03T04:14:43.793Z,0
2017-10-03T04:15:43.808Z,0
2017-10-03T04:16:43.834Z,0
2017-10-03T04:17:43.858Z,0
2017-10-03T04:18:43.924Z,0
2017-10-03T04:19:43.901Z,0
2017-10-03T04:20:43.925Z,0
2017-10-03T04:21:43.940Z,0
2017-10-03T04:22:43.970Z,0
2017-10-03T04:23:43.990Z,0
2017-10-03T04:24:44.032Z,0
2017-10-03T04:25:44.032Z,0
2017-10-03T04:26:44.051Z,0
2017-10-03T04:27:44.079Z,0
2017-10-03T04:28:44.107Z,0
2017-10-03T04:29:44.117Z,0
2017-10-03T04:30:44.141Z,0
2017-10-03T04:31:44.167Z,0
2017-10-03T04:32:44.185Z,0
2017-10-03T04:33:44.254Z,0
2017-10-03T04:34:44.231Z,0
2017-10-03T04:35:44.273Z,0
2017-10-03T04:36:44.277Z,0
2017-10-03T04:37:44.290Z,0
2017-10-03T04:38:44.629Z,0
2017-10-03T04:39:44.341Z,0
2017-10-03T04:40:44.356Z,0
2017-10-03T04:41:44.381Z,0
2017-10-03T04:42:44.403Z,0
2017-10-03T04:43:44.429Z,0
2017-10-03T04:44:44.447Z,0
2017-10-03T04:45:44.470Z,0
2017-10-03T04:46:44.504Z,0
2017-10-03T04:47:44.514Z,0
2017-10-03T04:48:44.536Z,0
2017-10-03T04:49:44.554Z,0
2017-10-03T04:50:44.640Z,0
2017-10-03T04:51:44.915Z,0
2017-10-03T04:52:44.650Z,0
2017-10-03T04:53:44.977Z,0
2017-10-03T04:54:44.677Z,0
2017-10-03T04:55:45.002Z,0
2017-10-03T04:56:44.716Z,0
2017-10-03T04:57:44.735Z,4
2017-10-03T04:58:44.780Z,4
2017-10-03T04:59:44.778Z,0
2017-10-03T05:00:45.109Z,4
2017-10-03T05:01:44.822Z,4
2017-10-03T05:02:45.165Z,4
2017-10-03T05:03:44.866Z,8
2017-10-03T05:04:44.910Z,4
2017-10-03T05:05:44.926Z,8
2017-10-03T05:06:45.305Z,8
2017-10-03T05:07:44.962Z,12
2017-10-03T05:08:44.989Z,8
2017-10-03T05:09:44.999Z,12
2017-10-03T05:10:45.029Z,12
2017-10-03T05:11:45.364Z,16
2017-10-03T05:12:45.075Z,16
2017-10-03T05:13:45.098Z,20
2017-10-03T05:14:45.112Z,20
2017-10-03T05:15:45.137Z,24
2017-10-03T05:16:45.159Z,24
2017-10-03T05:17:45.180Z,24
2017-10-03T05:18:45.207Z,32
2017-10-03T05:19:45.220Z,32
2017-10-03T05:20:45.263Z,36
2017-10-03T05:21:45.278Z,40
2017-10-03T05:22:45.295Z,44
2017-10-03T05:23:45.518Z,48
2017-10-03T05:24:45.338Z,56
2017-10-03T05:25:45.359Z,60
2017-10-03T05:26:45.389Z,56
2017-10-03T05:27:45.415Z,52
2017-10-03T05:28:45.422Z,60
2017-10-03T05:29:45.448Z,64
2017-10-03T05:30:45.781Z,68
2017-10-03T05:31:45.500Z,80
2017-10-03T05:32:45.511Z,92
2017-10-03T05:33:45.543Z,100
2017-10-03T05:34:45.556Z,116
2017-10-03T05:35:45.584Z,120
2017-10-03T05:36:45.608Z,136
2017-10-03T05:37:45.936Z,160
2017-10-03T05:38:45.644Z,172
2017-10-03T05:39:45.721Z,176
2017-10-03T05:40:45.698Z,172
2017-10-03T05:41:45.715Z,180
2017-10-03T05:42:45.728Z,196
2017-10-03T05:43:45.755Z,204
2017-10-03T05:44:45.783Z,196
2017-10-03T05:45:45.803Z,192
2017-10-03T05:46:45.821Z,188
2017-10-03T05:47:45.858Z,192
2017-10-03T05:48:45.869Z,200
2017-10-03T05:49:45.896Z,204
2017-10-03T05:50:45.921Z,212
2017-10-03T05:51:45.937Z,228
2017-10-03T05:52:45.969Z,248
2017-10-03T05:53:45.975Z,264
2017-10-03T05:54:46.001Z,284
2017-10-03T05:55:46.031Z,304
2017-10-03T05:56:46.351Z,332
2017-10-03T05:57:46.431Z,332
2017-10-03T05:58:46.092Z,332
2017-10-03T05:59:46.425Z,388
2017-10-03T06:00:46.135Z,396
2017-10-03T06:01:46.159Z,404
2017-10-03T06:02:46.184Z,412
2017-10-03T06:03:46.212Z,400
2017-10-03T06:04:46.425Z,392
2017-10-03T06:05:46.257Z,372
2017-10-03T06:06:46.267Z,360
2017-10-03T06:07:46.294Z,396
2017-10-03T06:08:46.332Z,404
2017-10-03T06:09:46.343Z,348
2017-10-03T06:10:46.373Z,352
2017-10-03T06:11:46.389Z,356
2017-10-03T06:12:46.454Z,428
2017-10-03T06:13:46.424Z,420
2017-10-03T06:14:46.465Z,464
2017-10-03T06:15:46.481Z,444
2017-10-03T06:16:46.500Z,356
2017-10-03T06:17:46.828Z,312
2017-10-03T06:18:46.541Z,300
2017-10-03T06:19:46.560Z,328
2017-10-03T06:20:46.586Z,304
2017-10-03T06:21:46.603Z,336
2017-10-03T06:22:46.633Z,336
2017-10-03T06:23:46.666Z,348
2017-10-03T06:24:46.682Z,408
2017-10-03T06:25:47.025Z,464
2017-10-03T06:26:46.723Z,444
2017-10-03T06:27:46.740Z,488
2017-10-03T06:28:46.761Z,408
2017-10-03T06:29:46.786Z,208
2017-10-03T06:30:46.818Z,104
2017-10-03T06:31:46.883Z,88
2017-10-03T06:32:46.863Z,100
2017-10-03T06:33:46.876Z,156
2017-10-03T06:34:46.904Z,256
2017-10-03T06:35:46.916Z,404
2017-10-03T06:36:46.944Z,464
2017-10-03T06:37:46.972Z,384
2017-10-03T06:38:47.302Z,344
2017-10-03T06:39:47.003Z,460
2017-10-03T06:40:47.345Z,568
2017-10-03T06:41:47.055Z,544
2017-10-03T06:42:47.070Z,512
2017-10-03T06:43:47.098Z,544
2017-10-03T06:44:47.429Z,580
2017-10-03T06:45:47.137Z,580
2017-10-03T06:46:47.225Z,616
2017-10-03T06:47:47.171Z,756
2017-10-03T06:48:47.197Z,1092
2017-10-03T06:49:47.216Z,1332
2017-10-03T06:50:47.235Z,1328
2017-10-03T06:51:47.253Z,1272
2017-10-03T06:52:47.398Z,1212
2017-10-03T06:53:47.309Z,1180
2017-10-03T06:54:47.341Z,1224
2017-10-03T06:55:47.345Z,1312
2017-10-03T06:56:47.359Z,1368
2017-10-03T06:57:47.386Z,1288
2017-10-03T06:58:47.401Z,1132
2017-10-03T06:59:47.421Z,1020
2017-10-03T07:00:47.437Z,1068
2017-10-03T07:01:47.519Z,1208
2017-10-03T07:02:47.488Z,1136
2017-10-03T07:03:47.499Z,1260
2017-10-03T07:04:47.517Z,1432
2017-10-03T07:05:47.543Z,1500
2017-10-03T07:06:47.561Z,1648
2017-10-03T07:07:47.605Z,1728
2017-10-03T07:08:47.598Z,1676
2017-10-03T07:09:47.622Z,1508
2017-10-03T07:10:47.644Z,1260
2017-10-03T07:11:47.658Z,1156
2017-10-03T07:12:47.991Z,1252
2017-10-03T07:13:47.705Z,1344
2017-10-03T07:14:47.717Z,1468
2017-10-03T07:15:47.746Z,1496
2017-10-03T07:16:47.810Z,1348
2017-10-03T07:17:47.787Z,1160
2017-10-03T07:18:47.795Z,1060
2017-10-03T07:19:48.172Z,1056
2017-10-03T07:20:48.152Z,1136
2017-10-03T07:21:47.876Z,1268
2017-10-03T07:22:47.878Z,1268
2017-10-03T07:23:47.902Z,1188
2017-10-03T07:24:47.932Z,1048
2017-10-03T07:25:47.937Z,1040
2017-10-03T07:26:47.963Z,1000
2017-10-03T07:27:47.979Z,1208
2017-10-03T07:28:48.001Z,1248
2017-10-03T07:29:48.335Z,1128
2017-10-03T07:30:48.036Z,1212
2017-10-03T07:31:48.381Z,1628
2017-10-03T07:32:48.314Z,1760
2017-10-03T07:33:48.412Z,1704
2017-10-03T07:34:48.123Z,1640
2017-10-03T07:35:48.136Z,1760
2017-10-03T07:36:48.153Z,1776
2017-10-03T07:37:48.187Z,1784
2017-10-03T07:38:48.200Z,1732
2017-10-03T07:39:48.263Z,1744
2017-10-03T07:40:48.234Z,1708
2017-10-03T07:41:48.265Z,1648
2017-10-03T07:42:48.277Z,1620
2017-10-03T07:43:48.617Z,1672
2017-10-03T07:44:48.327Z,1880
2017-10-03T07:45:48.338Z,2048
2017-10-03T07:46:48.364Z,2164
2017-10-03T07:47:48.387Z,2440
2017-10-03T07:48:48.448Z,2804
2017-10-03T07:49:48.425Z,3012
2017-10-03T07:50:48.437Z,2904
2017-10-03T07:51:48.456Z,2676
2017-10-03T07:52:48.492Z,2604
2017-10-03T07:53:48.501Z,2304
2017-10-03T07:54:48.522Z,2244
2017-10-03T07:55:48.548Z,2280
2017-10-03T07:56:48.549Z,2324
2017-10-03T07:57:48.583Z,2472
2017-10-03T07:58:48.601Z,2656
2017-10-03T07:59:48.613Z,2716
2017-10-03T08:00:48.643Z,3196
2017-10-03T08:01:48.655Z,3324
2017-10-03T08:02:48.691Z,3828
2017-10-03T08:03:48.699Z,3624
2017-10-03T08:04:48.724Z,3332
2017-10-03T08:05:48.784Z,3160
2017-10-03T08:06:48.758Z,2808
2017-10-03T08:07:48.786Z,2504
2017-10-03T08:08:48.800Z,2584
2017-10-03T08:09:48.866Z,2900
2017-10-03T08:10:48.836Z,2720
2017-10-03T08:11:48.874Z,3156
2017-10-03T08:12:48.875Z,3688
2017-10-03T08:13:48.893Z,4192
2017-10-03T08:14:48.913Z,4028
2017-10-03T08:15:48.941Z,4192
2017-10-03T08:16:48.958Z,4104
2017-10-03T08:17:48.978Z,4232
2017-10-03T08:18:49.010Z,3852
2017-10-03T08:19:49.016Z,3408
2017-10-03T08:20:49.035Z,3192
2017-10-03T08:21:49.055Z,3104
2017-10-03T08:22:49.076Z,3008
2017-10-03T08:23:49.102Z,2912
2017-10-03T08:24:49.433Z,2800
2017-10-03T08:25:49.452Z,2792
2017-10-03T08:26:49.157Z,2860
2017-10-03T08:27:49.178Z,2924
2017-10-03T08:28:49.196Z,3052
2017-10-03T08:29:49.226Z,3272
2017-10-03T08:30:49.234Z,3504
2017-10-03T08:31:49.257Z,3612
2017-10-03T08:32:49.280Z,3420
2017-10-03T08:33:49.296Z,3012
2017-10-03T08:34:49.309Z,2832
2017-10-03T08:35:49.331Z,2472
2017-10-03T08:36:49.354Z,2312
2017-10-03T08:37:49.684Z,2220
2017-10-03T08:38:49.763Z,2220
2017-10-03T08:39:49.430Z,2212
2017-10-03T08:40:49.431Z,2228
2017-10-03T08:41:49.451Z,2172
2017-10-03T08:42:49.473Z,2112
2017-10-03T08:43:49.497Z,2064
2017-10-03T08:44:49.824Z,1996
2017-10-03T08:45:49.533Z,1944
2017-10-03T08:46:49.754Z,1948
2017-10-03T08:47:49.572Z,1988
2017-10-03T08:48:49.594Z,1948
2017-10-03T08:49:49.617Z,1896
2017-10-03T08:50:49.937Z,1928
2017-10-03T08:51:52.151Z,1896
2017-10-03T08:52:51.015Z,1860
2017-10-03T08:53:52.451Z,1812
2017-10-03T08:54:52.257Z,1824
2017-10-03T08:55:51.266Z,1840
2017-10-03T08:56:51.357Z,1928
2017-10-03T08:57:50.263Z,2108
2017-10-03T08:58:52.253Z,2036
2017-10-03T08:59:51.030Z,1880
2017-10-03T09:00:51.863Z,1780
2017-10-03T09:01:51.277Z,1696
2017-10-03T09:02:51.386Z,1680
2017-10-03T09:03:51.261Z,1652
2017-10-03T09:04:53.684Z,1580
2017-10-03T09:05:51.207Z,1556
2017-10-03T09:06:51.860Z,1580
2017-10-03T09:07:50.149Z,1608
2017-10-03T09:08:50.454Z,1632
2017-10-03T09:09:50.914Z,1628
2017-10-03T09:10:52.164Z,1560
2017-10-03T09:11:50.960Z,1472
2017-10-03T09:12:51.500Z,1396
2017-10-03T09:13:50.804Z,1368
2017-10-03T09:14:50.105Z,1316
2017-10-03T09:15:50.135Z,1252
2017-10-03T09:16:50.136Z,1168
2017-10-03T09:17:50.501Z,1108
2017-10-03T09:18:50.496Z,1084
2017-10-03T09:19:50.203Z,976
2017-10-03T09:20:50.217Z,812
2017-10-03T09:21:50.235Z,752
2017-10-03T09:22:50.288Z,792
2017-10-03T09:23:50.266Z,876
2017-10-03T09:24:50.295Z,976
2017-10-03T09:25:50.307Z,1000
2017-10-03T09:26:50.385Z,1024
2017-10-03T09:27:50.695Z,1068
2017-10-03T09:28:50.368Z,1116
2017-10-03T09:29:50.963Z,1188
2017-10-03T09:30:51.028Z,1440
2017-10-03T09:31:50.915Z,1700
2017-10-03T09:32:50.462Z,1956
2017-10-03T09:33:51.413Z,2244
2017-10-03T09:34:50.478Z,2372
2017-10-03T09:35:50.498Z,2464
2017-10-03T09:36:50.740Z,2780
2017-10-03T09:37:50.571Z,2896
2017-10-03T09:38:50.555Z,2880
2017-10-03T09:39:50.705Z,2980
2017-10-03T09:40:50.617Z,2796
2017-10-03T09:41:51.044Z,2008
2017-10-03T09:42:51.155Z,1380
2017-10-03T09:43:51.987Z,1044
2017-10-03T09:44:51.109Z,976
2017-10-03T09:45:51.071Z,1012
2017-10-03T09:46:51.264Z,1020
2017-10-03T09:47:51.460Z,1048
2017-10-03T09:48:51.781Z,1076
2017-10-03T09:49:51.246Z,1044
2017-10-03T09:50:51.294Z,976
2017-10-03T09:51:51.174Z,956
2017-10-03T09:52:52.405Z,1096
2017-10-03T09:53:51.263Z,1328
2017-10-03T09:54:51.404Z,1504
2017-10-03T09:55:51.958Z,1556
2017-10-03T09:56:51.762Z,1560
2017-10-03T09:57:51.906Z,1836
2017-10-03T09:58:51.777Z,2496
2017-10-03T09:59:53.420Z,3220
2017-10-03T10:00:53.319Z,3428
2017-10-03T10:01:51.809Z,3396
2017-10-03T10:02:52.399Z,3408
2017-10-03T10:03:52.278Z,3556
2017-10-03T10:04:51.466Z,3884
2017-10-03T10:05:51.544Z,3972
2017-10-03T10:06:51.602Z,3704
2017-10-03T10:07:51.648Z,3308
2017-10-03T10:08:51.650Z,3180
2017-10-03T10:09:52.122Z,3340
2017-10-03T10:10:51.754Z,3736
2017-10-03T10:11:52.142Z,4116
2017-10-03T10:12:51.203Z,4256
2017-10-03T10:13:52.103Z,4416
2017-10-03T10:14:51.233Z,4528
2017-10-03T10:15:51.407Z,4532
2017-10-03T10:16:51.399Z,4636
2017-10-03T10:17:51.308Z,4452
2017-10-03T10:18:51.318Z,3900
2017-10-03T10:19:51.340Z,4056
2017-10-03T10:20:51.352Z,4296
2017-10-03T10:21:51.367Z,4272
2017-10-03T10:22:51.394Z,4024
2017-10-03T10:23:51.414Z,3728
2017-10-03T10:24:51.434Z,3644
2017-10-03T10:25:51.871Z,4144
2017-10-03T10:26:51.470Z,3984
2017-10-03T10:27:51.489Z,2760
2017-10-03T10:28:51.507Z,2732
2017-10-03T10:29:51.532Z,3116
2017-10-03T10:30:51.591Z,3256
2017-10-03T10:31:51.911Z,2564
2017-10-03T10:32:51.922Z,2360
2017-10-03T10:33:51.616Z,2608
2017-10-03T10:34:51.632Z,2980
2017-10-03T10:35:51.732Z,3252
2017-10-03T10:36:51.670Z,3940
2017-10-03T10:37:51.748Z,4788
2017-10-03T10:38:51.721Z,5272
2017-10-03T10:39:52.040Z,6852
2017-10-03T10:40:51.755Z,9336
2017-10-03T10:41:51.765Z,11844
2017-10-03T10:42:51.784Z,14608
2017-10-03T10:43:51.799Z,12776
2017-10-03T10:44:51.819Z,13384
2017-10-03T10:45:52.201Z,13504
2017-10-03T10:46:52.206Z,15780
2017-10-03T10:47:51.934Z,16640
2017-10-03T10:48:51.902Z,11812
2017-10-03T10:49:51.923Z,8692
2017-10-03T10:50:51.971Z,7968
2017-10-03T10:51:51.965Z,8260
2017-10-03T10:52:52.027Z,9316
2017-10-03T10:53:52.329Z,10424
2017-10-03T10:54:52.031Z,13572
2017-10-03T10:55:52.046Z,18016
2017-10-03T10:56:52.086Z,12520
2017-10-03T10:57:52.086Z,16372
2017-10-03T10:58:52.111Z,36864
2017-10-03T10:59:52.145Z,43200
2017-10-03T11:00:52.268Z,17984
2017-10-03T11:01:52.235Z,17088
2017-10-03T11:02:52.206Z,12820
2017-10-03T11:03:53.698Z,7860
2017-10-03T11:04:52.737Z,7140
2017-10-03T11:05:52.694Z,7416
2017-10-03T11:06:52.659Z,7248
2017-10-03T11:07:53.442Z,7556
2017-10-03T11:08:52.507Z,6888
2017-10-03T11:09:53.634Z,6908
2017-10-03T11:10:52.514Z,7856
2017-10-03T11:11:52.451Z,9728
2017-10-03T11:12:52.657Z,9216
2017-10-03T11:13:52.867Z,10948
2017-10-03T11:14:52.556Z,8916
2017-10-03T11:15:52.625Z,7776
2017-10-03T11:16:53.152Z,10472
2017-10-03T11:17:52.539Z,8844
2017-10-03T11:18:53.209Z,9732
2017-10-03T11:19:53.392Z,12084
2017-10-03T11:20:53.625Z,19424
2017-10-03T11:21:52.701Z,9148
2017-10-03T11:22:52.662Z,11588
2017-10-03T11:23:52.734Z,13700
2017-10-03T11:24:53.030Z,10140
2017-10-03T11:25:52.982Z,11972
2017-10-03T11:26:53.255Z,6988
2017-10-03T11:27:52.822Z,6672
2017-10-03T11:28:52.853Z,7256
2017-10-03T11:29:53.313Z,7176
2017-10-03T11:30:52.983Z,8260
2017-10-03T11:31:53.389Z,14824
2017-10-03T11:32:53.213Z,21760
2017-10-03T11:33:53.651Z,26464
2017-10-03T11:34:53.270Z,21440
2017-10-03T11:35:53.810Z,23168
2017-10-03T11:36:53.503Z,26944
2017-10-03T11:37:53.411Z,24800
2017-10-03T11:38:55.925Z,16160
2017-10-03T11:39:53.174Z,12876
2017-10-03T11:40:55.012Z,10328
2017-10-03T11:41:53.853Z,6716
2017-10-03T11:42:53.180Z,5032
2017-10-03T11:43:53.139Z,4108
2017-10-03T11:44:53.262Z,4136
2017-10-03T11:45:53.452Z,3620
2017-10-03T11:46:56.757Z,3540
2017-10-03T11:47:53.791Z,4360
2017-10-03T11:48:53.377Z,4852
2017-10-03T11:49:54.103Z,5744
2017-10-03T11:50:54.549Z,6256
2017-10-03T11:51:53.453Z,6052
2017-10-03T11:52:53.604Z,7444
2017-10-03T11:53:53.833Z,9556
2017-10-03T11:54:54.466Z,46400
2017-10-03T11:55:54.504Z,11056
2017-10-03T11:56:54.214Z,9004
2017-10-03T11:57:54.209Z,9512
2017-10-03T11:58:53.453Z,8820
2017-10-03T11:59:54.007Z,7952
2017-10-03T12:00:53.910Z,6828
2017-10-03T12:01:53.970Z,7380
2017-10-03T12:02:54.406Z,10592
2017-10-03T12:03:53.965Z,17376
2017-10-03T12:04:53.696Z,29760
2017-10-03T12:05:53.812Z,21024
2017-10-03T12:06:55.999Z,64864
2017-10-03T12:07:55.079Z,64704
2017-10-03T12:08:54.544Z,64224
2017-10-03T12:09:53.743Z,62944
2017-10-03T12:10:53.937Z,80992
2017-10-03T12:11:54.546Z,92224
2017-10-03T12:12:53.994Z,95168
2017-10-03T12:13:54.573Z,92672
2017-10-03T12:14:54.108Z,93120
2017-10-03T12:15:54.539Z,19936
2017-10-03T12:16:53.856Z,94656
2017-10-03T12:17:53.885Z,99488
2017-10-03T12:18:53.916Z,96384
2017-10-03T12:19:53.951Z,22976
2017-10-03T12:20:53.986Z,48768
2017-10-03T12:21:53.999Z,19424
2017-10-03T12:22:54.076Z,36128
2017-10-03T12:23:54.363Z,50656
2017-10-03T12:24:54.388Z,85728
2017-10-03T12:25:54.105Z,11312
2017-10-03T12:26:54.135Z,11868
2017-10-03T12:27:54.167Z,84416
2017-10-03T12:28:54.206Z,74464
2017-10-03T12:29:54.223Z,14448
2017-10-03T12:30:54.248Z,10732
2017-10-03T12:31:54.512Z,9188
2017-10-03T12:32:54.320Z,8260
2017-10-03T12:33:54.335Z,7752
2017-10-03T12:34:55.014Z,7580
2017-10-03T12:35:54.731Z,8024
2017-10-03T12:36:54.448Z,8088
2017-10-03T12:37:54.499Z,8176
2017-10-03T12:38:54.466Z,8684
2017-10-03T12:39:54.496Z,9652
2017-10-03T12:40:54.595Z,11592
2017-10-03T12:41:54.868Z,18080
2017-10-03T12:42:54.571Z,19392
2017-10-03T12:43:54.602Z,76128
2017-10-03T12:44:54.646Z,15164
2017-10-03T12:45:54.648Z,15932
2017-10-03T12:46:54.755Z,15452
2017-10-03T12:47:54.708Z,17152
2017-10-03T12:48:54.884Z,64800
2017-10-03T12:49:54.742Z,99008
2017-10-03T12:50:54.785Z,97920
2017-10-03T12:51:55.110Z,94464
2017-10-03T12:52:55.170Z,91136
2017-10-03T12:53:55.161Z,92768
2017-10-03T12:54:55.295Z,33888
2017-10-03T12:55:55.044Z,71712
2017-10-03T12:56:54.932Z,17504
2017-10-03T12:57:54.988Z,100736
2017-10-03T12:58:54.995Z,69056
2017-10-03T12:59:55.028Z,80832
2017-10-03T13:00:55.470Z,28704
2017-10-03T13:01:55.067Z,15936
2017-10-03T13:02:55.105Z,23904
2017-10-03T13:03:55.126Z,17120
2017-10-03T13:04:55.153Z,13172
2017-10-03T13:05:55.355Z,13656
2017-10-03T13:06:55.211Z,21216
2017-10-03T13:07:55.557Z,20768
2017-10-03T13:08:55.269Z,13876
2017-10-03T13:09:55.290Z,13044
2017-10-03T13:10:55.331Z,15544
2017-10-03T13:11:55.347Z,18400
2017-10-03T13:12:55.453Z,17216
2017-10-03T13:13:55.422Z,15072
2017-10-03T13:14:55.428Z,15140
2017-10-03T13:15:55.466Z,35904
2017-10-03T13:16:55.512Z,13700
2017-10-03T13:17:55.815Z,12468
2017-10-03T13:18:55.534Z,11716
2017-10-03T13:19:55.875Z,12188
2017-10-03T13:20:55.594Z,14008
2017-10-03T13:21:55.610Z,14536
2017-10-03T13:22:55.672Z,13892
2017-10-03T13:23:56.423Z,14036
2017-10-03T13:24:55.992Z,21888
2017-10-03T13:25:55.707Z,60256
2017-10-03T13:26:55.738Z,36128
2017-10-03T13:27:55.764Z,39264
2017-10-03T13:28:56.507Z,30272
2017-10-03T13:29:56.193Z,20096
2017-10-03T13:30:55.864Z,90528
2017-10-03T13:31:56.183Z,89856
2017-10-03T13:32:55.902Z,86656
2017-10-03T13:33:56.069Z,83232
2017-10-03T13:34:55.943Z,80256
2017-10-03T13:35:55.969Z,55584
2017-10-03T13:36:56.128Z,88256
2017-10-03T13:37:56.578Z,74816
2017-10-03T13:38:56.076Z,75328
2017-10-03T13:39:56.097Z,68352
2017-10-03T13:40:56.131Z,37824
2017-10-03T13:41:56.150Z,36320
2017-10-03T13:42:56.168Z,27040
2017-10-03T13:43:56.201Z,21824
2017-10-03T13:44:57.260Z,18816
2017-10-03T13:45:56.851Z,19072
2017-10-03T13:46:56.800Z,20608
2017-10-03T13:47:56.334Z,32704
2017-10-03T13:48:56.350Z,95104
2017-10-03T13:49:56.377Z,98144